Mangilao, Guam
Current Conditions -  °F | °C
As of 4:54 PM on Friday 24 Oct 2014 (Local Time) from PGUM Reporting Station
Clear Clear  
Wind Chill: 85°   Ceiling: Unl
Heat Index: 94°   Visibility: 10mi
Dew Point: 76°   Wind: 8mph
Humidity: 74%   Direction: 110°ESE
Pressure: 29.85"   Gusts: NA
Location:  13.44°N, 144.8°E
Report Text: PGUM 240654Z 11007KT 10SM CLR 29/24 A2985 RMK AO2 SLP100 T02940244 $
Loading
Personal Weather Stations






























Interactive Weather Map
Tropical Storm Tracking
New forecast layout! Learn more

10-Day Weather Forecast

Advertisements
Track Severe Weather on mobile